sensor_id;sensor_type;location;lat;lon;timestamp;temperature;humidity
15646;DHT22;7922;43.622;1.476;2022-09-03T00:10:03;21.50;99.90
15646;DHT22;7922;43.622;1.476;2022-09-03T00:12:32;21.60;99.90
15646;DHT22;7922;43.622;1.476;2022-09-03T00:17:38;21.50;99.90
15646;DHT22;7922;43.622;1.476;2022-09-03T00:20:25;21.40;99.90
15646;DHT22;7922;43.622;1.476;2022-09-03T00:22:54;21.40;99.90
15646;DHT22;7922;43.622;1.476;2022-09-03T00:25:37;21.40;99.90
15646;DHT22;7922;43.622;1.476;2022-09-03T00:28:10;21.40;99.90
15646;DHT22;7922;43.622;1.476;2022-09-03T00:30:39;21.30;99.90
15646;DHT22;7922;43.622;1.476;2022-09-03T00:33:26;21.10;99.90
15646;DHT22;7922;43.622;1.476;2022-09-03T00:36:27;21.10;99.90
15646;DHT22;7922;43.622;1.476;2022-09-03T00:38:50;21.10;99.90
15646;DHT22;7922;43.622;1.476;2022-09-03T00:44:19;21.00;99.90
15646;DHT22;7922;43.622;1.476;2022-09-03T00:47:08;20.90;99.90
15646;DHT22;7922;43.622;1.476;2022-09-03T01:00:07;20.70;99.90
15646;DHT22;7922;43.622;1.476;2022-09-03T01:13:22;20.80;99.90
15646;DHT22;7922;43.622;1.476;2022-09-03T01:16:08;20.80;99.90
15646;DHT22;7922;43.622;1.476;2022-09-03T01:18:50;20.70;99.90
15646;DHT22;7922;43.622;1.476;2022-09-03T01:21:29;20.60;99.90
15646;DHT22;7922;43.622;1.476;2022-09-03T01:27:09;20.60;99.90
15646;DHT22;7922;43.622;1.476;2022-09-03T01:30:18;20.60;99.90
15646;DHT22;7922;43.622;1.476;2022-09-03T01:33:16;20.70;99.90
15646;DHT22;7922;43.622;1.476;2022-09-03T01:36:22;20.60;99.90
15646;DHT22;7922;43.622;1.476;2022-09-03T01:38:57;20.60;99.90
15646;DHT22;7922;43.622;1.476;2022-09-03T01:55:28;20.60;99.90
15646;DHT22;7922;43.622;1.476;2022-09-03T01:58:01;20.60;99.90
15646;DHT22;7922;43.622;1.476;2022-09-03T02:00:32;20.60;99.90
15646;DHT22;7922;43.622;1.476;2022-09-03T02:03:03;20.60;99.90
15646;DHT22;7922;43.622;1.476;2022-09-03T02:05:30;20.70;99.90
15646;DHT22;7922;43.622;1.476;2022-09-03T02:13:10;20.50;99.90
15646;DHT22;7922;43.622;1.476;2022-09-03T02:15:38;20.40;99.90
15646;DHT22;7922;43.622;1.476;2022-09-03T02:18:09;20.40;99.90
15646;DHT22;7922;43.622;1.476;2022-09-03T02:20:36;20.40;99.90
15646;DHT22;7922;43.622;1.476;2022-09-03T02:23:02;20.40;99.90
15646;DHT22;7922;43.622;1.476;2022-09-03T02:25:36;20.50;99.90
15646;DHT22;7922;43.622;1.476;2022-09-03T02:28:05;20.50;99.90
15646;DHT22;7922;43.622;1.476;2022-09-03T02:30:32;20.60;99.90
15646;DHT22;7922;43.622;1.476;2022-09-03T02:32:58;20.50;99.90
15646;DHT22;7922;43.622;1.476;2022-09-03T02:35:24;20.50;99.90
15646;DHT22;7922;43.622;1.476;2022-09-03T02:37:50;20.60;99.90
15646;DHT22;7922;43.622;1.476;2022-09-03T02:40:16;20.40;99.90
15646;DHT22;7922;43.622;1.476;2022-09-03T02:42:42;20.40;99.90
15646;DHT22;7922;43.622;1.476;2022-09-03T02:45:25;20.40;99.90
15646;DHT22;7922;43.622;1.476;2022-09-03T02:47:54;20.30;99.90
15646;DHT22;7922;43.622;1.476;2022-09-03T02:50:20;20.30;99.90
15646;DHT22;7922;43.622;1.476;2022-09-03T02:52:46;20.20;99.90
15646;DHT22;7922;43.622;1.476;2022-09-03T02:55:12;20.20;99.90
15646;DHT22;7922;43.622;1.476;2022-09-03T02:57:37;20.10;99.90
15646;DHT22;7922;43.622;1.476;2022-09-03T03:00:04;20.10;99.90
15646;DHT22;7922;43.622;1.476;2022-09-03T03:02:29;20.10;99.90
15646;DHT22;7922;43.622;1.476;2022-09-03T03:04:55;20.10;99.90
15646;DHT22;7922;43.622;1.476;2022-09-03T03:07:21;20.00;99.90
15646;DHT22;7922;43.622;1.476;2022-09-03T03:09:46;20.10;99.90
15646;DHT22;7922;43.622;1.476;2022-09-03T03:12:12;20.10;99.90
15646;DHT22;7922;43.622;1.476;2022-09-03T03:14:38;20.20;99.90
15646;DHT22;7922;43.622;1.476;2022-09-03T03:17:03;20.20;99.90
15646;DHT22;7922;43.622;1.476;2022-09-03T03:19:29;20.20;99.90
15646;DHT22;7922;43.622;1.476;2022-09-03T03:21:55;20.20;99.90
15646;DHT22;7922;43.622;1.476;2022-09-03T03:24:21;20.20;99.90
15646;DHT22;7922;43.622;1.476;2022-09-03T03:26:46;20.10;99.90
15646;DHT22;7922;43.622;1.476;2022-09-03T03:29:14;20.10;99.90
15646;DHT22;7922;43.622;1.476;2022-09-03T03:31:42;20.00;99.90
15646;DHT22;7922;43.622;1.476;2022-09-03T03:34:08;20.00;99.90
15646;DHT22;7922;43.622;1.476;2022-09-03T03:36:34;20.10;99.90
15646;DHT22;7922;43.622;1.476;2022-09-03T03:39:01;20.00;99.90
15646;DHT22;7922;43.622;1.476;2022-09-03T03:41:30;19.90;99.90
15646;DHT22;7922;43.622;1.476;2022-09-03T03:43:58;19.80;99.90
15646;DHT22;7922;43.622;1.476;2022-09-03T03:46:27;19.70;99.90
15646;DHT22;7922;43.622;1.476;2022-09-03T03:48:53;19.70;99.90
15646;DHT22;7922;43.622;1.476;2022-09-03T03:51:18;19.70;99.90
15646;DHT22;7922;43.622;1.476;2022-09-03T03:53:44;19.70;99.90
15646;DHT22;7922;43.622;1.476;2022-09-03T03:56:12;19.70;99.90
15646;DHT22;7922;43.622;1.476;2022-09-03T03:58:39;19.70;99.90
15646;DHT22;7922;43.622;1.476;2022-09-03T04:01:14;19.80;99.90
15646;DHT22;7922;43.622;1.476;2022-09-03T04:03:41;19.70;99.90
15646;DHT22;7922;43.622;1.476;2022-09-03T04:06:08;19.70;99.90
15646;DHT22;7922;43.622;1.476;2022-09-03T04:08:41;19.80;99.90
15646;DHT22;7922;43.622;1.476;2022-09-03T04:11:09;19.80;99.90
15646;DHT22;7922;43.622;1.476;2022-09-03T04:13:38;19.80;99.90
15646;DHT22;7922;43.622;1.476;2022-09-03T04:16:18;19.20;99.90
15646;DHT22;7922;43.622;1.476;2022-09-03T04:18:45;19.80;99.90
15646;DHT22;7922;43.622;1.476;2022-09-03T04:21:13;19.60;99.90
15646;DHT22;7922;43.622;1.476;2022-09-03T04:23:45;19.60;99.90
15646;DHT22;7922;43.622;1.476;2022-09-03T04:26:14;19.60;99.90
15646;DHT22;7922;43.622;1.476;2022-09-03T04:28:41;19.60;99.90
15646;DHT22;7922;43.622;1.476;2022-09-03T04:31:09;19.60;99.90
15646;DHT22;7922;43.622;1.476;2022-09-03T04:33:36;19.60;99.90
15646;DHT22;7922;43.622;1.476;2022-09-03T04:36:07;19.70;99.90
15646;DHT22;7922;43.622;1.476;2022-09-03T04:38:35;19.70;99.90
15646;DHT22;7922;43.622;1.476;2022-09-03T04:41:01;19.70;99.90
15646;DHT22;7922;43.622;1.476;2022-09-03T04:43:27;19.70;99.90
15646;DHT22;7922;43.622;1.476;2022-09-03T04:46:01;19.70;99.90
15646;DHT22;7922;43.622;1.476;2022-09-03T04:48:28;19.70;99.90
15646;DHT22;7922;43.622;1.476;2022-09-03T04:50:54;19.80;99.90
15646;DHT22;7922;43.622;1.476;2022-09-03T04:53:30;19.80;99.90
15646;DHT22;7922;43.622;1.476;2022-09-03T04:55:55;19.70;99.90
15646;DHT22;7922;43.622;1.476;2022-09-03T04:58:21;19.70;99.90
15646;DHT22;7922;43.622;1.476;2022-09-03T05:00:47;19.70;99.90
15646;DHT22;7922;43.622;1.476;2022-09-03T05:03:13;19.70;99.90
15646;DHT22;7922;43.622;1.476;2022-09-03T05:05:39;19.60;99.90
15646;DHT22;7922;43.622;1.476;2022-09-03T05:08:04;19.70;99.90
15646;DHT22;7922;43.622;1.476;2022-09-03T05:10:31;19.70;99.90
15646;DHT22;7922;43.622;1.476;2022-09-03T05:13:02;19.70;99.90
15646;DHT22;7922;43.622;1.476;2022-09-03T05:15:29;19.60;99.90
15646;DHT22;7922;43.622;1.476;2022-09-03T05:17:59;19.60;99.90
15646;DHT22;7922;43.622;1.476;2022-09-03T05:20:27;19.60;99.90
15646;DHT22;7922;43.622;1.476;2022-09-03T05:23:00;19.60;99.90
15646;DHT22;7922;43.622;1.476;2022-09-03T05:25:25;19.60;99.90
15646;DHT22;7922;43.622;1.476;2022-09-03T05:27:51;19.60;99.90
15646;DHT22;7922;43.622;1.476;2022-09-03T05:30:19;19.60;99.90
15646;DHT22;7922;43.622;1.476;2022-09-03T05:32:48;19.50;99.90
15646;DHT22;7922;43.622;1.476;2022-09-03T05:35:13;19.50;99.90
15646;DHT22;7922;43.622;1.476;2022-09-03T05:37:39;19.50;99.90
15646;DHT22;7922;43.622;1.476;2022-09-03T05:40:06;19.40;99.90
15646;DHT22;7922;43.622;1.476;2022-09-03T05:42:35;19.40;99.90
15646;DHT22;7922;43.622;1.476;2022-09-03T05:45:07;19.50;99.90
15646;DHT22;7922;43.622;1.476;2022-09-03T05:47:36;19.50;99.90
15646;DHT22;7922;43.622;1.476;2022-09-03T05:50:04;19.50;99.90
15646;DHT22;7922;43.622;1.476;2022-09-03T05:52:30;19.60;99.90
15646;DHT22;7922;43.622;1.476;2022-09-03T05:54:56;19.60;99.90
15646;DHT22;7922;43.622;1.476;2022-09-03T05:57:22;19.60;99.90
15646;DHT22;7922;43.622;1.476;2022-09-03T05:59:47;19.70;99.90
15646;DHT22;7922;43.622;1.476;2022-09-03T06:02:13;19.80;99.90
15646;DHT22;7922;43.622;1.476;2022-09-03T06:04:39;19.90;99.90
15646;DHT22;7922;43.622;1.476;2022-09-03T06:07:04;20.00;99.90
15646;DHT22;7922;43.622;1.476;2022-09-03T06:09:30;20.00;99.90
15646;DHT22;7922;43.622;1.476;2022-09-03T06:11:56;20.10;99.90
15646;DHT22;7922;43.622;1.476;2022-09-03T06:14:21;20.20;99.90
15646;DHT22;7922;43.622;1.476;2022-09-03T06:16:48;20.20;99.90
15646;DHT22;7922;43.622;1.476;2022-09-03T06:19:15;20.40;99.90
15646;DHT22;7922;43.622;1.476;2022-09-03T06:21:42;20.40;99.90
15646;DHT22;7922;43.622;1.476;2022-09-03T06:24:14;20.40;99.90
15646;DHT22;7922;43.622;1.476;2022-09-03T06:26:41;20.40;99.90
15646;DHT22;7922;43.622;1.476;2022-09-03T06:29:06;20.50;99.90
15646;DHT22;7922;43.622;1.476;2022-09-03T06:31:32;20.50;99.90
15646;DHT22;7922;43.622;1.476;2022-09-03T06:34:00;20.60;99.90
15646;DHT22;7922;43.622;1.476;2022-09-03T06:36:26;20.60;99.90
15646;DHT22;7922;43.622;1.476;2022-09-03T06:38:53;20.60;99.90
15646;DHT22;7922;43.622;1.476;2022-09-03T06:41:28;20.70;99.90
15646;DHT22;7922;43.622;1.476;2022-09-03T06:43:58;20.90;99.90
15646;DHT22;7922;43.622;1.476;2022-09-03T06:46:26;21.10;99.90
15646;DHT22;7922;43.622;1.476;2022-09-03T06:48:52;21.20;99.90
15646;DHT22;7922;43.622;1.476;2022-09-03T06:51:25;21.30;99.90
15646;DHT22;7922;43.622;1.476;2022-09-03T06:53:53;21.40;99.90
15646;DHT22;7922;43.622;1.476;2022-09-03T06:56:23;21.40;99.90
15646;DHT22;7922;43.622;1.476;2022-09-03T06:58:57;21.50;99.90
15646;DHT22;7922;43.622;1.476;2022-09-03T07:01:29;21.50;99.90
15646;DHT22;7922;43.622;1.476;2022-09-03T07:04:03;21.50;99.90
15646;DHT22;7922;43.622;1.476;2022-09-03T07:06:32;21.50;99.90
15646;DHT22;7922;43.622;1.476;2022-09-03T07:08:58;21.70;99.90
15646;DHT22;7922;43.622;1.476;2022-09-03T07:11:27;21.90;99.90
15646;DHT22;7922;43.622;1.476;2022-09-03T07:13:54;22.10;99.90
15646;DHT22;7922;43.622;1.476;2022-09-03T07:16:28;22.20;99.90
15646;DHT22;7922;43.622;1.476;2022-09-03T07:18:55;22.30;99.90
15646;DHT22;7922;43.622;1.476;2022-09-03T07:21:25;22.50;99.90
15646;DHT22;7922;43.622;1.476;2022-09-03T07:23:52;22.60;99.90
15646;DHT22;7922;43.622;1.476;2022-09-03T07:26:26;22.60;99.90
15646;DHT22;7922;43.622;1.476;2022-09-03T07:28:53;22.60;99.90
15646;DHT22;7922;43.622;1.476;2022-09-03T07:31:24;22.40;99.90
15646;DHT22;7922;43.622;1.476;2022-09-03T07:33:56;22.40;99.90
15646;DHT22;7922;43.622;1.476;2022-09-03T07:36:24;22.50;99.90
15646;DHT22;7922;43.622;1.476;2022-09-03T07:38:54;22.70;99.90
15646;DHT22;7922;43.622;1.476;2022-09-03T07:41:20;22.80;99.90
15646;DHT22;7922;43.622;1.476;2022-09-03T07:43:47;23.00;99.90
15646;DHT22;7922;43.622;1.476;2022-09-03T07:46:21;23.20;99.90
15646;DHT22;7922;43.622;1.476;2022-09-03T07:48:55;23.20;99.90
15646;DHT22;7922;43.622;1.476;2022-09-03T07:51:23;23.10;99.90
15646;DHT22;7922;43.622;1.476;2022-09-03T07:53:52;23.10;99.90
15646;DHT22;7922;43.622;1.476;2022-09-03T07:56:18;23.30;99.90
15646;DHT22;7922;43.622;1.476;2022-09-03T07:58:44;23.60;99.90
15646;DHT22;7922;43.622;1.476;2022-09-03T08:01:18;23.70;99.90
15646;DHT22;7922;43.622;1.476;2022-09-03T08:03:46;23.70;99.90
15646;DHT22;7922;43.622;1.476;2022-09-03T08:06:12;23.90;99.90
15646;DHT22;7922;43.622;1.476;2022-09-03T08:08:39;24.00;99.90
15646;DHT22;7922;43.622;1.476;2022-09-03T08:11:13;24.30;99.90
15646;DHT22;7922;43.622;1.476;2022-09-03T08:13:47;24.40;99.90
15646;DHT22;7922;43.622;1.476;2022-09-03T08:16:15;24.50;99.90
15646;DHT22;7922;43.622;1.476;2022-09-03T08:18:42;24.70;99.90
15646;DHT22;7922;43.622;1.476;2022-09-03T08:21:11;24.20;99.90
15646;DHT22;7922;43.622;1.476;2022-09-03T08:23:41;24.30;99.90
15646;DHT22;7922;43.622;1.476;2022-09-03T08:26:07;24.40;99.90
15646;DHT22;7922;43.622;1.476;2022-09-03T08:28:34;24.40;99.90
15646;DHT22;7922;43.622;1.476;2022-09-03T08:31:14;24.30;99.90
15646;DHT22;7922;43.622;1.476;2022-09-03T08:33:45;24.00;99.90
15646;DHT22;7922;43.622;1.476;2022-09-03T08:36:34;23.60;99.90
15646;DHT22;7922;43.622;1.476;2022-09-03T08:39:01;24.00;99.90
15646;DHT22;7922;43.622;1.476;2022-09-03T08:54:45;24.90;99.90
15646;DHT22;7922;43.622;1.476;2022-09-03T08:57:12;24.80;99.90
15646;DHT22;7922;43.622;1.476;2022-09-03T08:59:38;24.70;99.90
15646;DHT22;7922;43.622;1.476;2022-09-03T09:05:16;24.30;99.90
15646;DHT22;7922;43.622;1.476;2022-09-03T09:07:45;24.40;99.90
15646;DHT22;7922;43.622;1.476;2022-09-03T09:10:43;24.50;99.90
15646;DHT22;7922;43.622;1.476;2022-09-03T09:13:41;24.70;99.90
15646;DHT22;7922;43.622;1.476;2022-09-03T09:16:30;24.80;99.90
15646;DHT22;7922;43.622;1.476;2022-09-03T09:21:54;24.90;99.90
15646;DHT22;7922;43.622;1.476;2022-09-03T09:24:24;25.10;99.90
15646;DHT22;7922;43.622;1.476;2022-09-03T09:27:02;25.10;99.90
15646;DHT22;7922;43.622;1.476;2022-09-03T09:29:32;24.80;99.90
15646;DHT22;7922;43.622;1.476;2022-09-03T09:32:00;24.70;99.90
15646;DHT22;7922;43.622;1.476;2022-09-03T09:34:26;24.60;99.90
15646;DHT22;7922;43.622;1.476;2022-09-03T09:36:54;24.70;99.90
15646;DHT22;7922;43.622;1.476;2022-09-03T09:39:21;24.90;99.90
15646;DHT22;7922;43.622;1.476;2022-09-03T09:42:08;24.80;99.90
15646;DHT22;7922;43.622;1.476;2022-09-03T09:44:37;24.40;99.90
15646;DHT22;7922;43.622;1.476;2022-09-03T09:47:26;24.10;99.90
15646;DHT22;7922;43.622;1.476;2022-09-03T09:49:51;24.20;99.90
15646;DHT22;7922;43.622;1.476;2022-09-03T09:52:17;24.20;99.90
15646;DHT22;7922;43.622;1.476;2022-09-03T09:54:44;24.40;99.90
15646;DHT22;7922;43.622;1.476;2022-09-03T09:57:16;24.50;99.90
15646;DHT22;7922;43.622;1.476;2022-09-03T09:59:43;24.70;99.90
15646;DHT22;7922;43.622;1.476;2022-09-03T10:02:23;24.80;99.90
15646;DHT22;7922;43.622;1.476;2022-09-03T10:05:12;25.20;99.90
15646;DHT22;7922;43.622;1.476;2022-09-03T10:07:38;25.00;99.90
15646;DHT22;7922;43.622;1.476;2022-09-03T10:12:50;25.40;99.90
15646;DHT22;7922;43.622;1.476;2022-09-03T10:15:31;25.40;99.90
15646;DHT22;7922;43.622;1.476;2022-09-03T10:21:00;25.50;99.90
15646;DHT22;7922;43.622;1.476;2022-09-03T10:26:28;25.70;99.90
15646;DHT22;7922;43.622;1.476;2022-09-03T10:28:59;26.00;99.90
15646;DHT22;7922;43.622;1.476;2022-09-03T10:42:36;26.50;99.90
15646;DHT22;7922;43.622;1.476;2022-09-03T10:45:38;26.70;99.90
15646;DHT22;7922;43.622;1.476;2022-09-03T10:50:57;26.40;99.90
15646;DHT22;7922;43.622;1.476;2022-09-03T11:04:42;26.80;99.90
15646;DHT22;7922;43.622;1.476;2022-09-03T11:07:19;27.20;99.90
15646;DHT22;7922;43.622;1.476;2022-09-03T11:09:54;27.60;99.90
15646;DHT22;7922;43.622;1.476;2022-09-03T11:12:35;27.70;99.90
15646;DHT22;7922;43.622;1.476;2022-09-03T11:15:06;27.50;99.90
15646;DHT22;7922;43.622;1.476;2022-09-03T11:17:41;27.50;99.90
15646;DHT22;7922;43.622;1.476;2022-09-03T11:20:18;27.60;99.90
15646;DHT22;7922;43.622;1.476;2022-09-03T11:22:45;27.70;99.90
15646;DHT22;7922;43.622;1.476;2022-09-03T11:25:14;27.60;99.90
15646;DHT22;7922;43.622;1.476;2022-09-03T11:30:13;27.20;99.90
15646;DHT22;7922;43.622;1.476;2022-09-03T11:32:59;27.40;99.90
15646;DHT22;7922;43.622;1.476;2022-09-03T11:43:32;27.50;99.90
15646;DHT22;7922;43.622;1.476;2022-09-03T11:46:13;27.20;99.90
15646;DHT22;7922;43.622;1.476;2022-09-03T11:48:53;27.10;99.90
15646;DHT22;7922;43.622;1.476;2022-09-03T11:56:38;27.60;99.90
15646;DHT22;7922;43.622;1.476;2022-09-03T12:01:52;27.10;99.90
15646;DHT22;7922;43.622;1.476;2022-09-03T12:04:32;26.70;99.90
15646;DHT22;7922;43.622;1.476;2022-09-03T12:15:08;26.60;99.90
15646;DHT22;7922;43.622;1.476;2022-09-03T12:18:17;26.50;99.90
15646;DHT22;7922;43.622;1.476;2022-09-03T12:21:05;26.70;99.90
15646;DHT22;7922;43.622;1.476;2022-09-03T12:26:12;26.40;99.90
15646;DHT22;7922;43.622;1.476;2022-09-03T12:28:41;26.40;99.90
15646;DHT22;7922;43.622;1.476;2022-09-03T12:34:13;26.80;99.90
15646;DHT22;7922;43.622;1.476;2022-09-03T12:36:42;26.80;99.90
15646;DHT22;7922;43.622;1.476;2022-09-03T12:39:16;26.70;99.90
15646;DHT22;7922;43.622;1.476;2022-09-03T12:42:03;26.80;99.90
15646;DHT22;7922;43.622;1.476;2022-09-03T12:47:10;26.60;99.90
15646;DHT22;7922;43.622;1.476;2022-09-03T12:49:39;27.00;99.90
15646;DHT22;7922;43.622;1.476;2022-09-03T12:55:07;27.10;99.90
15646;DHT22;7922;43.622;1.476;2022-09-03T12:57:44;27.10;99.90
15646;DHT22;7922;43.622;1.476;2022-09-03T13:00:14;27.20;99.90
15646;DHT22;7922;43.622;1.476;2022-09-03T13:02:52;27.30;99.90
15646;DHT22;7922;43.622;1.476;2022-09-03T13:05:35;27.40;99.90
15646;DHT22;7922;43.622;1.476;2022-09-03T13:08:06;27.50;99.90
15646;DHT22;7922;43.622;1.476;2022-09-03T13:10:36;27.40;99.90
15646;DHT22;7922;43.622;1.476;2022-09-03T13:18:49;27.00;99.90
15646;DHT22;7922;43.622;1.476;2022-09-03T13:27:02;27.50;99.90
15646;DHT22;7922;43.622;1.476;2022-09-03T13:32:56;27.50;99.90
15646;DHT22;7922;43.622;1.476;2022-09-03T13:38:26;27.70;99.90
15646;DHT22;7922;43.622;1.476;2022-09-03T13:40:59;27.60;99.90
15646;DHT22;7922;43.622;1.476;2022-09-03T13:43:55;27.30;99.90
15646;DHT22;7922;43.622;1.476;2022-09-03T13:46:31;27.30;99.90
15646;DHT22;7922;43.622;1.476;2022-09-03T13:52:26;27.40;99.90
15646;DHT22;7922;43.622;1.476;2022-09-03T13:55:00;27.20;99.90
15646;DHT22;7922;43.622;1.476;2022-09-03T13:57:52;27.00;99.90
15646;DHT22;7922;43.622;1.476;2022-09-03T14:00:25;27.40;99.90
15646;DHT22;7922;43.622;1.476;2022-09-03T14:03:07;27.20;99.90
15646;DHT22;7922;43.622;1.476;2022-09-03T14:21:57;27.70;99.90
15646;DHT22;7922;43.622;1.476;2022-09-03T14:24:37;27.60;99.90
15646;DHT22;7922;43.622;1.476;2022-09-03T14:27:04;27.80;99.90
15646;DHT22;7922;43.622;1.476;2022-09-03T14:29:32;27.80;99.90
15646;DHT22;7922;43.622;1.476;2022-09-03T14:40:26;28.00;99.90
15646;DHT22;7922;43.622;1.476;2022-09-03T15:00:15;28.40;99.90
15646;DHT22;7922;43.622;1.476;2022-09-03T15:03:06;28.40;99.90
15646;DHT22;7922;43.622;1.476;2022-09-03T15:05:46;28.30;99.90
15646;DHT22;7922;43.622;1.476;2022-09-03T15:11:27;28.30;99.90
15646;DHT22;7922;43.622;1.476;2022-09-03T15:14:11;28.00;99.90
15646;DHT22;7922;43.622;1.476;2022-09-03T15:27:44;27.00;99.90
15646;DHT22;7922;43.622;1.476;2022-09-03T15:30:15;27.10;99.90
15646;DHT22;7922;43.622;1.476;2022-09-03T15:33:01;27.00;99.90
15646;DHT22;7922;43.622;1.476;2022-09-03T15:38:51;26.90;99.90
15646;DHT22;7922;43.622;1.476;2022-09-03T15:44:19;26.90;99.90
15646;DHT22;7922;43.622;1.476;2022-09-03T15:55:11;27.20;99.90
15646;DHT22;7922;43.622;1.476;2022-09-03T16:00:53;27.20;99.90
15646;DHT22;7922;43.622;1.476;2022-09-03T16:03:32;27.10;99.90
15646;DHT22;7922;43.622;1.476;2022-09-03T16:06:15;27.10;99.90
15646;DHT22;7922;43.622;1.476;2022-09-03T16:08:52;27.00;99.90
15646;DHT22;7922;43.622;1.476;2022-09-03T16:14:19;27.10;99.90
15646;DHT22;7922;43.622;1.476;2022-09-03T16:19:37;27.40;99.90
15646;DHT22;7922;43.622;1.476;2022-09-03T16:22:13;27.50;99.90
15646;DHT22;7922;43.622;1.476;2022-09-03T16:24:54;27.40;99.90
15646;DHT22;7922;43.622;1.476;2022-09-03T16:30:19;27.20;99.90
15646;DHT22;7922;43.622;1.476;2022-09-03T16:35:52;27.00;99.90
15646;DHT22;7922;43.622;1.476;2022-09-03T16:38:48;26.90;99.90
15646;DHT22;7922;43.622;1.476;2022-09-03T16:41:25;26.80;99.90
15646;DHT22;7922;43.622;1.476;2022-09-03T16:44:06;26.80;99.90
15646;DHT22;7922;43.622;1.476;2022-09-03T16:46:45;26.80;99.90
15646;DHT22;7922;43.622;1.476;2022-09-03T16:49:35;26.70;99.90
15646;DHT22;7922;43.622;1.476;2022-09-03T17:00:20;26.50;99.90
15646;DHT22;7922;43.622;1.476;2022-09-03T17:06:07;26.50;99.90
15646;DHT22;7922;43.622;1.476;2022-09-03T17:08:52;26.50;99.90
15646;DHT22;7922;43.622;1.476;2022-09-03T17:20:00;26.50;99.90
15646;DHT22;7922;43.622;1.476;2022-09-03T17:25:33;26.40;99.90
15646;DHT22;7922;43.622;1.476;2022-09-03T17:31:02;26.20;99.90
15646;DHT22;7922;43.622;1.476;2022-09-03T17:36:24;26.10;99.90
15646;DHT22;7922;43.622;1.476;2022-09-03T17:55:31;26.20;99.90
15646;DHT22;7922;43.622;1.476;2022-09-03T18:03:44;26.10;99.90
15646;DHT22;7922;43.622;1.476;2022-09-03T18:06:25;26.10;99.90
15646;DHT22;7922;43.622;1.476;2022-09-03T18:12:18;25.80;99.90
15646;DHT22;7922;43.622;1.476;2022-09-03T18:15:06;25.80;99.90
15646;DHT22;7922;43.622;1.476;2022-09-03T18:17:56;25.60;99.90
15646;DHT22;7922;43.622;1.476;2022-09-03T18:20:24;25.50;99.90
15646;DHT22;7922;43.622;1.476;2022-09-03T18:23:46;25.50;99.90
15646;DHT22;7922;43.622;1.476;2022-09-03T18:26:38;25.30;99.90
15646;DHT22;7922;43.622;1.476;2022-09-03T18:29:30;25.20;99.90
15646;DHT22;7922;43.622;1.476;2022-09-03T18:32:15;25.00;99.90
15646;DHT22;7922;43.622;1.476;2022-09-03T18:34:59;24.90;99.90
15646;DHT22;7922;43.622;1.476;2022-09-03T18:37:44;24.70;99.90
15646;DHT22;7922;43.622;1.476;2022-09-03T18:40:35;24.60;99.90
15646;DHT22;7922;43.622;1.476;2022-09-03T18:43:39;24.50;99.90
15646;DHT22;7922;43.622;1.476;2022-09-03T18:49:39;24.30;99.90
15646;DHT22;7922;43.622;1.476;2022-09-03T18:53:02;24.20;99.90
15646;DHT22;7922;43.622;1.476;2022-09-03T18:56:08;24.10;99.90
15646;DHT22;7922;43.622;1.476;2022-09-03T19:01:47;24.00;99.90
15646;DHT22;7922;43.622;1.476;2022-09-03T19:04:51;23.90;99.90
15646;DHT22;7922;43.622;1.476;2022-09-03T19:08:05;23.90;99.90
15646;DHT22;7922;43.622;1.476;2022-09-03T19:17:05;23.70;99.90
15646;DHT22;7922;43.622;1.476;2022-09-03T19:22:51;23.60;99.90
15646;DHT22;7922;43.622;1.476;2022-09-03T19:25:35;23.60;99.90
15646;DHT22;7922;43.622;1.476;2022-09-03T19:28:29;23.60;99.90
15646;DHT22;7922;43.622;1.476;2022-09-03T19:31:36;23.50;99.90
15646;DHT22;7922;43.622;1.476;2022-09-03T19:34:48;23.50;99.90
15646;DHT22;7922;43.622;1.476;2022-09-03T19:37:54;23.50;99.90
15646;DHT22;7922;43.622;1.476;2022-09-03T19:41:07;23.50;99.90
15646;DHT22;7922;43.622;1.476;2022-09-03T19:46:54;23.40;99.90
15646;DHT22;7922;43.622;1.476;2022-09-03T19:55:42;23.40;99.90
15646;DHT22;7922;43.622;1.476;2022-09-03T19:58:30;23.30;99.90
15646;DHT22;7922;43.622;1.476;2022-09-03T20:01:15;23.30;99.90
15646;DHT22;7922;43.622;1.476;2022-09-03T20:04:05;23.30;99.90
15646;DHT22;7922;43.622;1.476;2022-09-03T20:06:52;23.30;99.90
15646;DHT22;7922;43.622;1.476;2022-09-03T20:09:39;23.30;99.90
15646;DHT22;7922;43.622;1.476;2022-09-03T20:12:28;23.30;99.90
15646;DHT22;7922;43.622;1.476;2022-09-03T20:14:57;23.20;99.90
15646;DHT22;7922;43.622;1.476;2022-09-03T20:20:25;23.20;99.90
15646;DHT22;7922;43.622;1.476;2022-09-03T20:36:37;23.10;99.90
15646;DHT22;7922;43.622;1.476;2022-09-03T20:39:44;23.00;99.90
15646;DHT22;7922;43.622;1.476;2022-09-03T20:45:32;22.90;99.90
15646;DHT22;7922;43.622;1.476;2022-09-03T20:59:33;22.70;99.90
15646;DHT22;7922;43.622;1.476;2022-09-03T21:05:20;22.60;99.90
15646;DHT22;7922;43.622;1.476;2022-09-03T21:18:58;22.40;99.90
15646;DHT22;7922;43.622;1.476;2022-09-03T21:24:14;22.30;99.90
15646;DHT22;7922;43.622;1.476;2022-09-03T21:26:44;22.30;99.90
15646;DHT22;7922;43.622;1.476;2022-09-03T21:29:27;22.20;99.90
15646;DHT22;7922;43.622;1.476;2022-09-03T21:34:30;22.20;99.90
15646;DHT22;7922;43.622;1.476;2022-09-03T21:37:03;22.20;99.90
15646;DHT22;7922;43.622;1.476;2022-09-03T21:39:33;22.10;99.90
15646;DHT22;7922;43.622;1.476;2022-09-03T21:47:54;22.00;99.90
15646;DHT22;7922;43.622;1.476;2022-09-03T21:50:28;22.00;99.90
15646;DHT22;7922;43.622;1.476;2022-09-03T21:53:04;22.00;99.90
15646;DHT22;7922;43.622;1.476;2022-09-03T21:55:40;21.90;99.90
15646;DHT22;7922;43.622;1.476;2022-09-03T22:01:21;21.80;99.90
15646;DHT22;7922;43.622;1.476;2022-09-03T22:03:51;21.80;99.90
15646;DHT22;7922;43.622;1.476;2022-09-03T22:06:26;21.70;99.90
15646;DHT22;7922;43.622;1.476;2022-09-03T22:09:17;21.60;99.90
15646;DHT22;7922;43.622;1.476;2022-09-03T22:11:57;21.60;99.90
15646;DHT22;7922;43.622;1.476;2022-09-03T22:14:29;21.70;99.90
15646;DHT22;7922;43.622;1.476;2022-09-03T22:16:58;21.60;99.90
15646;DHT22;7922;43.622;1.476;2022-09-03T22:19:29;21.60;99.90
15646;DHT22;7922;43.622;1.476;2022-09-03T22:22:00;21.60;99.90
15646;DHT22;7922;43.622;1.476;2022-09-03T22:24:54;21.60;99.90
15646;DHT22;7922;43.622;1.476;2022-09-03T22:27:45;21.50;99.90
15646;DHT22;7922;43.622;1.476;2022-09-03T22:30:15;21.50;99.90
15646;DHT22;7922;43.622;1.476;2022-09-03T22:46:08;21.40;99.90
15646;DHT22;7922;43.622;1.476;2022-09-03T22:51:05;21.30;99.90
15646;DHT22;7922;43.622;1.476;2022-09-03T22:56:10;21.20;99.90
15646;DHT22;7922;43.622;1.476;2022-09-03T22:58:46;21.20;99.90
15646;DHT22;7922;43.622;1.476;2022-09-03T23:01:20;21.20;99.90
15646;DHT22;7922;43.622;1.476;2022-09-03T23:03:57;21.10;99.90
15646;DHT22;7922;43.622;1.476;2022-09-03T23:06:36;21.10;99.90
15646;DHT22;7922;43.622;1.476;2022-09-03T23:09:09;21.10;99.90
15646;DHT22;7922;43.622;1.476;2022-09-03T23:11:44;21.10;99.90
15646;DHT22;7922;43.622;1.476;2022-09-03T23:14:15;21.10;99.90
15646;DHT22;7922;43.622;1.476;2022-09-03T23:16:52;21.00;99.90
15646;DHT22;7922;43.622;1.476;2022-09-03T23:19:30;21.00;99.90
15646;DHT22;7922;43.622;1.476;2022-09-03T23:22:21;20.90;99.90